Impacts METAR Board INFO
IDs:

KJFK - New York/Kennedy Int, NY, US

Updated at: 1509 UTC 21 Feb 2018
Potential Impact None Slight Moderate High
Time21/03Z 21/04Z 21/05Z 21/06Z 21/07Z 21/08Z 21/09Z 21/10Z 21/11Z 21/12Z 21/13Z 21/14Z 21/15Z
VIS 0.25 0.13 0.13
CIG 2 2 2
CoverOVXOVXBKN
FltCatLIFRLIFRLIFR
WXBRFGBR
WDir190190200
WSpd 6 7 6
WGst -- -- --
Raw hourly METARs










KJFK 211251Z 19006KT 1/4SM R04R/2400V3000FT BR VV002 08/08 A3033 RMK AO2 SFC VIS 3/4 SLP269 T00830083
KJFK 211351Z 19007KT 1/8SM R04R/2400V4000FT FG VV002 09/09 A3032 RMK AO2 SFC VIS 1/2 SLP266 T00940094
KJFK 211451Z 20006KT 1/8SM R04R/P6000FT BR FEW000 BKN002 BKN018 09/09 A3032 RMK AO2 SFC VIS 2 SLP265 BR FEW000 T00940094 58002